Time;durP1;ratioP1;P1;durP2;ratioP2;P2;SDS_P1;SDS_P2;PMS_P1;PMS_P2;Temp;Humidity;BMP_temperature;BMP_pressure;BME280_temperature;BME280_humidity;BME280_pressure;Samples;Min_cycle;Max_cycle;Signal;HPM_P1;HPM_P2
2023/12/25 00:01:01;;;;;;;0.20;0.20;;;;;;;9.51;61.43;100847.50;4956921;28;20027;-89
2023/12/25 00:03:26;;;;;;;0.20;0.20;;;;;;;9.69;61.11;100849.31;4974382;28;20037;-90
2023/12/25 00:05:52;;;;;;;0.20;0.20;;;;;;;9.71;60.64;100817.34;4974353;28;20026;-88
2023/12/25 00:08:17;;;;;;;0.20;0.20;;;;;;;9.90;60.16;100839.81;4974640;28;20094;-89
2023/12/25 00:10:43;;;;;;;0.10;0.10;;;;;;;10.03;59.61;100844.44;4941023;28;20038;-89
2023/12/25 00:13:09;;;;;;;0.20;0.20;;;;;;;10.03;59.80;100831.50;4957122;28;20121;-89
2023/12/25 00:15:35;;;;;;;0.13;0.13;;;;;;;10.09;60.17;100839.88;4973776;28;20055;-90
2023/12/25 00:18:01;;;;;;;0.20;0.20;;;;;;;10.18;59.55;100839.47;4956869;28;20042;-90
2023/12/25 00:20:26;;;;;;;0.20;0.20;;;;;;;10.16;59.47;100825.78;4973780;28;20416;-90
2023/12/25 00:22:52;;;;;;;0.20;0.20;;;;;;;10.09;59.26;100819.19;4957046;28;20412;-88
2023/12/25 00:25:17;;;;;;;0.20;0.20;;;;;;;10.09;59.12;100840.72;4940397;28;20417;-88
2023/12/25 00:27:43;;;;;;;0.20;0.20;;;;;;;9.84;59.70;100815.09;4973723;28;20027;-88
2023/12/25 00:30:09;;;;;;;0.20;0.20;;;;;;;9.91;61.03;100832.00;4956323;28;20034;-87
2023/12/25 00:32:35;;;;;;;0.20;0.20;;;;;;;9.98;61.90;100822.25;4956660;28;20031;-89
2023/12/25 00:35:00;;;;;;;0.20;0.20;;;;;;;10.01;61.54;100822.94;4956498;28;20037;-89
2023/12/25 00:37:26;;;;;;;0.20;0.20;;;;;;;10.20;61.61;100835.91;4956384;28;20085;-89
2023/12/25 00:39:52;;;;;;;0.20;0.20;;;;;;;10.23;61.36;100838.41;4956609;28;20030;-88
2023/12/25 00:42:19;;;;;;;0.20;0.20;;;;;;;10.42;61.21;100851.38;4956533;28;20034;-89
2023/12/25 00:44:44;;;;;;;0.20;0.20;;;;;;;10.29;61.14;100826.94;4956291;28;20019;-89
2023/12/25 00:47:10;;;;;;;0.20;0.20;;;;;;;10.36;61.48;100825.78;4956284;28;20042;-88
2023/12/25 00:49:35;;;;;;;0.20;0.20;;;;;;;10.45;61.52;100846.06;4956435;28;20058;-88
2023/12/25 00:52:01;;;;;;;0.20;0.20;;;;;;;10.43;61.72;100845.28;4956319;28;20031;-88
2023/12/25 00:54:27;;;;;;;0.20;0.20;;;;;;;10.36;61.50;100828.34;4956003;28;20031;-88
2023/12/25 00:56:53;;;;;;;0.20;0.20;;;;;;;10.60;61.55;100855.69;4956206;28;20081;-88
2023/12/25 00:59:18;;;;;;;0.20;0.20;;;;;;;10.66;61.38;100857.19;4955913;28;20026;-88
2023/12/25 01:01:44;;;;;;;0.20;0.20;;;;;;;10.69;61.32;100854.44;4956143;28;20034;-88
2023/12/25 01:04:09;;;;;;;0.20;0.20;;;;;;;10.56;61.10;100810.19;4956128;28;20409;-88
2023/12/25 01:06:35;;;;;;;0.20;0.20;;;;;;;10.65;61.11;100854.66;4973180;28;20460;-88
2023/12/25 01:09:00;;;;;;;0.20;0.20;;;;;;;10.37;61.90;100839.53;4956322;28;20174;-89
2023/12/25 01:11:26;;;;;;;0.20;0.20;;;;;;;10.35;61.94;100862.88;4955679;28;20027;-89
2023/12/25 01:13:51;;;;;;;0.20;0.20;;;;;;;10.30;62.06;100838.97;4955293;28;20050;-88
2023/12/25 01:16:17;;;;;;;0.20;0.20;;;;;;;10.36;61.91;100868.91;4939487;28;20500;-89
2023/12/25 01:18:42;;;;;;;0.20;0.20;;;;;;;10.36;61.53;100867.16;4955747;28;20027;-88
2023/12/25 01:21:08;;;;;;;0.20;0.20;;;;;;;10.32;61.18;100874.22;4955519;28;20023;-90
2023/12/25 01:23:34;;;;;;;0.20;0.20;;;;;;;10.36;62.24;100880.09;4955488;28;20074;-88
2023/12/25 01:25:59;;;;;;;0.20;0.20;;;;;;;10.27;61.95;100875.31;4972978;28;20055;-86
2023/12/25 01:28:25;;;;;;;0.20;0.20;;;;;;;10.31;61.62;100871.66;4955330;28;20034;-89
2023/12/25 01:30:51;;;;;;;0.20;0.20;;;;;;;10.14;61.13;100887.06;4955576;28;20034;-89
2023/12/25 01:33:16;;;;;;;0.20;0.20;;;;;;;9.90;60.85;100861.34;4955398;28;20058;-89
2023/12/25 01:35:42;;;;;;;0.20;0.20;;;;;;;9.86;61.17;100869.31;4972082;28;20041;-88
2023/12/25 01:38:07;;;;;;;0.20;0.20;;;;;;;9.82;61.34;100873.72;4955295;28;20043;-89
2023/12/25 01:40:33;;;;;;;0.20;0.20;;;;;;;9.62;62.38;100876.31;4955312;28;20031;-88
2023/12/25 01:42:58;;;;;;;0.20;0.20;;;;;;;9.46;62.64;100873.53;4955153;28;20026;-90
2023/12/25 01:45:24;;;;;;;0.20;0.20;;;;;;;9.29;63.07;100863.84;4955206;28;20031;-89
2023/12/25 01:47:49;;;;;;;0.20;0.20;;;;;;;9.04;62.66;100824.41;4972546;28;20399;-87
2023/12/25 01:50:15;;;;;;;0.20;0.20;;;;;;;9.19;63.07;100847.91;4939169;28;20409;-88
2023/12/25 01:52:40;;;;;;;0.20;0.20;;;;;;;9.15;63.16;100867.00;4954875;28;20532;-88
2023/12/25 01:55:06;;;;;;;0.20;0.20;;;;;;;9.09;62.79;100856.91;4972129;28;20497;-89
2023/12/25 01:57:33;;;;;;;0.20;0.20;;;;;;;8.97;63.13;100861.69;4954928;28;20498;-89
2023/12/25 01:59:58;;;;;;;0.20;0.20;;;;;;;8.81;63.42;100846.78;4955066;28;20449;-89
2023/12/25 02:02:24;;;;;;;0.20;0.20;;;;;;;8.71;63.33;100847.19;4972302;28;20031;-87
2023/12/25 02:04:49;;;;;;;0.20;0.20;;;;;;;8.71;64.01;100866.09;4955127;28;20019;-89
2023/12/25 02:07:15;;;;;;;0.20;0.20;;;;;;;8.70;64.40;100859.25;4955071;28;20031;-88
2023/12/25 02:09:41;;;;;;;0.20;0.20;;;;;;;8.62;64.82;100861.28;4955550;28;20027;-88
2023/12/25 02:12:06;;;;;;;0.20;0.20;;;;;;;8.55;65.08;100864.97;4938763;28;20504;-86
2023/12/25 02:14:32;;;;;;;0.20;0.20;;;;;;;8.47;65.38;100854.97;4972272;28;20126;-89
2023/12/25 02:16:57;;;;;;;0.20;0.20;;;;;;;8.40;65.25;100850.06;4938509;28;20584;-88
2023/12/25 02:19:46;;;;;;;0.20;0.20;;;;;;;8.40;65.32;100847.50;4955121;28;20031;-89
2023/12/25 02:22:12;;;;;;;0.20;0.20;;;;;;;8.31;65.38;100844.31;4970966;28;20092;-89
2023/12/25 02:24:41;;;;;;;0.20;0.20;;;;;;;8.32;65.17;100848.56;4938841;28;20031;-88
2023/12/25 02:27:07;;;;;;;0.20;0.20;;;;;;;8.32;65.25;100847.75;4938901;28;20023;-88
2023/12/25 02:29:33;;;;;;;0.20;0.20;;;;;;;8.39;64.52;100838.94;4955144;28;20406;-90
2023/12/25 02:31:59;;;;;;;0.20;0.20;;;;;;;8.27;64.94;100823.88;4939205;28;20081;-88
2023/12/25 02:34:25;;;;;;;0.20;0.20;;;;;;;8.29;66.18;100838.38;4971970;28;20035;-90
2023/12/25 02:36:50;;;;;;;0.20;0.20;;;;;;;8.43;66.21;100837.91;4954699;28;20030;-89
2023/12/25 02:39:17;;;;;;;0.10;0.10;;;;;;;8.59;66.54;100836.44;4954701;28;20516;-88
2023/12/25 02:41:43;;;;;;;0.20;0.20;;;;;;;8.76;66.04;100841.00;4971492;28;20030;-88
2023/12/25 02:44:08;;;;;;;0.20;0.20;;;;;;;9.07;65.37;100832.06;4954337;28;20034;-88
2023/12/25 02:46:34;;;;;;;0.20;0.20;;;;;;;9.31;64.88;100836.22;4954467;28;20541;-88
2023/12/25 02:48:59;;;;;;;0.20;0.20;;;;;;;9.48;63.76;100835.56;4975762;28;20033;-88
2023/12/25 02:51:25;;;;;;;0.20;0.20;;;;;;;9.56;63.24;100830.09;4958508;28;20027;-89
2023/12/25 02:53:50;;;;;;;0.20;0.20;;;;;;;9.68;63.08;100837.31;4975618;28;20030;-88
2023/12/25 02:56:16;;;;;;;0.20;0.20;;;;;;;9.76;62.91;100843.00;4958077;28;20031;-89
2023/12/25 02:58:41;;;;;;;0.20;0.20;;;;;;;9.75;62.47;100838.75;4942357;28;20034;-90
2023/12/25 03:01:07;;;;;;;0.20;0.20;;;;;;;9.90;62.42;100843.25;4958136;28;20023;-88
2023/12/25 03:03:32;;;;;;;0.20;0.20;;;;;;;10.05;61.72;100839.19;4942345;28;20030;-89
2023/12/25 03:05:58;;;;;;;0.20;0.20;;;;;;;10.14;61.51;100828.44;4975488;28;20038;-88
2023/12/25 03:08:24;;;;;;;0.10;0.10;;;;;;;10.33;60.89;100824.16;4942040;28;20042;-87
2023/12/25 03:10:49;;;;;;;0.20;0.20;;;;;;;10.77;59.26;100842.00;4974658;28;20031;-88
2023/12/25 03:13:15;;;;;;;0.10;0.10;;;;;;;10.91;58.64;100818.03;4957889;28;20051;-86
2023/12/25 03:15:40;;;;;;;0.20;0.20;;;;;;;11.08;57.42;100812.06;4957778;28;20034;-89
2023/12/25 03:18:06;;;;;;;0.20;0.20;;;;;;;11.13;56.73;100790.25;4975247;28;20081;-88
2023/12/25 03:20:31;;;;;;;0.20;0.20;;;;;;;11.11;56.96;100792.06;4957909;28;20485;-89
2023/12/25 03:22:57;;;;;;;0.20;0.20;;;;;;;10.96;57.73;100803.16;4958204;28;20038;-89
2023/12/25 03:25:23;;;;;;;0.20;0.20;;;;;;;10.92;57.97;100824.94;4957338;28;20081;-88
2023/12/25 03:27:49;;;;;;;0.20;0.20;;;;;;;10.97;57.86;100820.34;4958006;28;20056;-88
2023/12/25 03:30:14;;;;;;;0.20;0.20;;;;;;;11.18;57.26;100819.31;4958183;28;20109;-88
2023/12/25 03:32:40;;;;;;;0.17;0.17;;;;;;;11.38;56.50;100822.69;4957600;28;20793;-88
2023/12/25 03:35:06;;;;;;;0.20;0.20;;;;;;;11.36;54.99;100785.69;4941290;28;20041;-87
2023/12/25 03:37:31;;;;;;;0.20;0.20;;;;;;;11.67;54.61;100809.13;4974795;28;20027;-88
2023/12/25 03:39:57;;;;;;;0.20;0.20;;;;;;;11.89;53.66;100821.03;4956943;28;20027;-88
2023/12/25 03:42:23;;;;;;;0.10;0.10;;;;;;;12.07;52.86;100825.28;4957257;28;20031;-87
2023/12/25 03:44:49;;;;;;;0.20;0.20;;;;;;;12.31;51.93;100824.00;4957498;28;20026;-89
2023/12/25 03:47:14;;;;;;;0.20;0.20;;;;;;;12.61;51.02;100813.75;4974571;28;20041;-88
2023/12/25 03:49:40;;;;;;;0.20;0.20;;;;;;;12.65;50.29;100783.25;4974608;28;20440;-87
2023/12/25 03:52:05;;;;;;;0.20;0.20;;;;;;;12.83;49.97;100789.19;4956954;28;20034;-88
2023/12/25 03:54:31;;;;;;;0.20;0.20;;;;;;;12.64;50.49;100753.88;4956881;28;20408;-89
2023/12/25 03:56:57;;;;;;;0.20;0.20;;;;;;;12.88;49.89;100785.44;4957027;28;20038;-89
2023/12/25 03:59:22;;;;;;;0.10;0.10;;;;;;;13.06;49.06;100790.50;4973449;28;20023;-89
2023/12/25 04:01:48;;;;;;;0.20;0.20;;;;;;;13.09;49.61;100791.16;4957222;28;20086;-90
2023/12/25 04:04:14;;;;;;;0.20;0.20;;;;;;;13.16;48.76;100796.84;4956779;28;20415;-88
2023/12/25 04:06:39;;;;;;;0.20;0.20;;;;;;;13.23;48.54;100790.41;4956924;28;20066;-89
2023/12/25 04:09:05;;;;;;;0.10;0.10;;;;;;;13.14;48.20;100783.09;4956675;28;20608;-88
2023/12/25 04:11:30;;;;;;;0.20;0.20;;;;;;;13.26;48.19;100818.78;4974241;28;20035;-88
2023/12/25 04:13:56;;;;;;;0.20;0.20;;;;;;;13.28;48.29;100819.56;4940664;28;20511;-88
2023/12/25 04:16:25;;;;;;;0.20;0.20;;;;;;;13.31;47.78;100824.59;4973908;28;20505;-87
2023/12/25 04:18:54;;;;;;;0.20;0.20;;;;;;;13.30;47.39;100812.53;4956930;28;20030;-89
2023/12/25 04:21:30;;;;;;;0.20;0.20;;;;;;;13.30;47.11;100809.91;4941382;28;20030;-88
2023/12/25 04:23:56;;;;;;;0.10;0.10;;;;;;;13.39;46.96;100830.19;4940945;28;20051;-88
2023/12/25 04:26:22;;;;;;;0.10;0.10;;;;;;;13.42;47.14;100835.19;4956335;28;20066;-86
2023/12/25 04:28:48;;;;;;;0.20;0.20;;;;;;;13.36;46.99;100819.94;4940669;28;20035;-88
2023/12/25 04:31:14;;;;;;;0.20;0.20;;;;;;;13.34;46.73;100795.81;4940488;28;20035;-89
2023/12/25 04:33:39;;;;;;;0.20;0.20;;;;;;;13.54;46.75;100819.81;4956527;28;20416;-87
2023/12/25 04:36:08;;;;;;;0.10;0.10;;;;;;;13.53;46.49;100820.75;4956558;28;20027;-88
2023/12/25 04:38:35;;;;;;;0.20;0.20;;;;;;;13.55;46.40;100824.09;4956492;28;20038;-89
2023/12/25 04:41:00;;;;;;;0.20;0.20;;;;;;;13.38;46.72;100794.72;4956687;28;20031;-90
2023/12/25 04:43:26;;;;;;;0.20;0.20;;;;;;;13.51;47.04;100814.81;4956463;28;20078;-89
2023/12/25 04:45:51;;;;;;;0.10;0.10;;;;;;;13.44;47.13;100812.56;4940320;28;20062;-89
2023/12/25 04:48:17;;;;;;;0.10;0.10;;;;;;;13.40;47.02;100810.22;4956409;28;20110;-88
2023/12/25 04:50:43;;;;;;;0.20;0.20;;;;;;;13.31;47.60;100809.00;4956194;28;20062;-88
2023/12/25 04:53:09;;;;;;;0.20;0.20;;;;;;;13.04;47.58;100793.19;4955986;28;20100;-90
2023/12/25 04:55:35;;;;;;;0.20;0.20;;;;;;;13.03;47.93;100820.06;4956255;28;20039;-89
2023/12/25 04:58:00;;;;;;;0.20;0.20;;;;;;;12.93;48.48;100827.53;4956329;28;20062;-87
2023/12/25 05:00:26;;;;;;;0.20;0.20;;;;;;;12.89;48.54;100825.22;4973159;28;20428;-89
2023/12/25 05:02:51;;;;;;;0.20;0.20;;;;;;;12.93;48.42;100830.13;4956300;28;20023;-88
2023/12/25 05:05:17;;;;;;;0.20;0.20;;;;;;;12.87;48.56;100827.03;4956092;28;20030;-89
2023/12/25 05:07:42;;;;;;;0.20;0.20;;;;;;;12.76;48.58;100814.66;4972472;28;20035;-88
2023/12/25 05:10:08;;;;;;;0.20;0.20;;;;;;;12.80;48.47;100818.75;4954958;28;20489;-88
2023/12/25 05:12:34;;;;;;;0.20;0.20;;;;;;;12.80;48.39;100816.16;4955333;28;20135;-89
2023/12/25 05:14:59;;;;;;;0.20;0.20;;;;;;;12.79;48.38;100817.09;4955764;28;20614;-87
2023/12/25 05:17:25;;;;;;;0.17;0.17;;;;;;;12.94;48.07;100838.75;4955513;28;20034;-88
2023/12/25 05:19:50;;;;;;;0.20;0.20;;;;;;;12.92;48.13;100820.69;4955756;28;20505;-88
2023/12/25 05:22:16;;;;;;;0.20;0.20;;;;;;;13.04;47.85;100832.13;4972914;28;20030;-87
2023/12/25 05:24:42;;;;;;;0.20;0.20;;;;;;;13.06;47.89;100832.03;4972755;28;20031;-88
2023/12/25 05:27:08;;;;;;;0.20;0.20;;;;;;;13.10;47.71;100830.97;4972721;28;20030;-88
2023/12/25 05:29:33;;;;;;;0.20;0.20;;;;;;;13.05;47.28;100830.38;4939844;28;20038;-88
2023/12/25 05:31:59;;;;;;;0.20;0.20;;;;;;;13.09;47.45;100829.28;4939302;28;20027;-89
2023/12/25 05:34:26;;;;;;;0.20;0.20;;;;;;;13.00;47.14;100822.84;4972477;28;20034;-88
2023/12/25 05:36:52;;;;;;;0.20;0.20;;;;;;;13.08;47.11;100825.88;4955835;28;20454;-88
2023/12/25 05:39:18;;;;;;;0.20;0.20;;;;;;;13.13;47.10;100825.59;4972537;28;20105;-88
2023/12/25 05:41:43;;;;;;;0.20;0.20;;;;;;;12.91;46.81;100792.19;4955534;28;20512;-89
2023/12/25 05:44:09;;;;;;;0.20;0.20;;;;;;;13.26;46.72;100833.56;4955390;28;20449;-89
2023/12/25 05:46:35;;;;;;;0.20;0.20;;;;;;;13.09;46.63;100819.75;4955295;28;20427;-88
2023/12/25 05:49:00;;;;;;;0.15;0.15;;;;;;;13.24;46.55;100840.59;4972209;28;20026;-88
2023/12/25 05:51:26;;;;;;;0.20;0.20;;;;;;;13.05;46.53;100814.78;4972170;28;20157;-88
2023/12/25 05:53:51;;;;;;;0.20;0.20;;;;;;;13.19;46.79;100840.88;4954940;28;20074;-88
2023/12/25 05:56:17;;;;;;;0.20;0.20;;;;;;;13.19;46.39;100831.31;4955024;28;20108;-89
2023/12/25 05:58:42;;;;;;;0.20;0.20;;;;;;;13.18;46.42;100829.63;4954954;28;20045;-87
2023/12/25 06:01:12;;;;;;;0.20;0.20;;;;;;;13.05;47.03;100820.81;4972502;28;20042;-87
2023/12/25 06:03:38;;;;;;;0.20;0.20;;;;;;;13.11;46.48;100836.06;4938882;28;20117;-88
2023/12/25 06:06:04;;;;;;;0.20;0.20;;;;;;;13.02;46.61;100810.63;4955130;28;20231;-88
2023/12/25 06:08:30;;;;;;;0.20;0.20;;;;;;;13.09;46.31;100829.28;4972003;28;20102;-88
2023/12/25 06:10:55;;;;;;;0.20;0.20;;;;;;;13.14;46.44;100825.50;4972114;28;20057;-88
2023/12/25 06:13:21;;;;;;;0.20;0.20;;;;;;;13.10;46.04;100812.78;4972096;28;20051;-89
2023/12/25 06:15:48;;;;;;;0.20;0.20;;;;;;;13.23;45.76;100818.97;4954491;28;20040;-88
2023/12/25 06:18:14;;;;;;;0.20;0.20;;;;;;;13.29;46.03;100834.22;4954898;28;20465;-88
2023/12/25 06:20:40;;;;;;;0.20;0.20;;;;;;;13.36;45.46;100830.34;4954392;28;20018;-88
2023/12/25 06:23:06;;;;;;;0.20;0.20;;;;;;;13.39;45.83;100825.00;4954519;28;20035;-88
2023/12/25 06:25:31;;;;;;;0.20;0.20;;;;;;;13.44;45.45;100820.34;4972216;28;20034;-89
2023/12/25 06:27:57;;;;;;;0.20;0.20;;;;;;;13.47;45.31;100812.41;4954808;28;20034;-88
2023/12/25 06:30:22;;;;;;;0.20;0.20;;;;;;;13.40;45.17;100816.25;4954482;28;20035;-87
2023/12/25 06:32:48;;;;;;;0.20;0.20;;;;;;;13.42;45.19;100809.22;4971753;28;20023;-90
2023/12/25 06:35:13;;;;;;;0.20;0.20;;;;;;;13.56;44.93;100820.56;4972051;28;20505;-88
2023/12/25 06:37:39;;;;;;;0.20;0.20;;;;;;;13.60;44.79;100825.50;4954319;28;20034;-88
2023/12/25 06:40:05;;;;;;;0.20;0.20;;;;;;;13.71;44.20;100828.31;4954565;28;20061;-86
2023/12/25 06:42:31;;;;;;;0.20;0.20;;;;;;;13.88;43.84;100827.31;4954501;28;20581;-87
2023/12/25 06:44:56;;;;;;;0.20;0.20;;;;;;;13.85;43.69;100821.44;4954615;28;20110;-88
2023/12/25 06:47:22;;;;;;;0.20;0.20;;;;;;;13.97;43.12;100831.97;4971160;28;20409;-88
2023/12/25 06:49:47;;;;;;;0.20;0.20;;;;;;;14.05;43.27;100844.50;4954795;28;20042;-89
2023/12/25 06:52:13;;;;;;;0.20;0.20;;;;;;;13.98;43.59;100818.03;4971680;28;20069;-87
2023/12/25 06:54:38;;;;;;;0.20;0.20;;;;;;;14.23;43.06;100852.97;4954677;28;20074;-88
2023/12/25 06:57:04;;;;;;;0.20;0.20;;;;;;;14.28;43.07;100850.94;4954175;28;20069;-89
2023/12/25 06:59:30;;;;;;;0.10;0.10;;;;;;;14.28;43.29;100856.16;4971649;28;20050;-88
2023/12/25 07:01:55;;;;;;;0.20;0.20;;;;;;;14.25;43.10;100858.91;4953896;28;20744;-87
2023/12/25 07:04:22;;;;;;;0.20;0.20;;;;;;;14.32;43.17;100839.41;4971283;28;20497;-87
2023/12/25 07:06:48;;;;;;;0.20;0.20;;;;;;;14.45;42.53;100852.53;4954559;28;20527;-89
2023/12/25 07:09:14;;;;;;;0.20;0.20;;;;;;;14.52;42.42;100849.47;4954086;28;20058;-87
2023/12/25 07:11:41;;;;;;;0.20;0.20;;;;;;;14.66;41.83;100846.03;4954450;28;20034;-88
2023/12/25 07:14:07;;;;;;;0.20;0.20;;;;;;;14.63;41.81;100841.81;4954184;28;20051;-88
2023/12/25 07:16:33;;;;;;;0.20;0.20;;;;;;;14.82;42.12;100853.69;4953540;28;20026;-89
2023/12/25 07:18:59;;;;;;;0.20;0.20;;;;;;;14.83;41.76;100850.16;4971458;28;20031;-88
2023/12/25 07:21:24;;;;;;;0.20;0.20;;;;;;;14.86;41.70;100857.78;4971119;28;20065;-88
2023/12/25 07:23:50;;;;;;;0.20;0.20;;;;;;;14.96;41.10;100858.88;4953870;28;20119;-88
2023/12/25 07:26:17;;;;;;;0.20;0.20;;;;;;;15.05;41.31;100858.31;4954133;28;20027;-87
2023/12/25 07:28:43;;;;;;;0.20;0.20;;;;;;;15.10;40.88;100845.81;4954145;28;20035;-89
2023/12/25 07:31:08;;;;;;;0.20;0.20;;;;;;;15.30;40.88;100860.16;4953942;28;20035;-89
2023/12/25 07:33:35;;;;;;;0.20;0.20;;;;;;;15.28;40.67;100848.16;4971607;28;20039;-88
2023/12/25 07:36:01;;;;;;;0.20;0.20;;;;;;;15.42;40.79;100871.53;4974521;28;20117;-88
2023/12/25 07:38:27;;;;;;;0.13;0.13;;;;;;;15.56;40.33;100870.66;4956974;28;20023;-88
2023/12/25 07:40:52;;;;;;;0.10;0.10;;;;;;;15.49;40.71;100862.41;4974791;28;20155;-88
2023/12/25 07:43:18;;;;;;;0.20;0.20;;;;;;;15.51;40.57;100870.94;4974692;28;20034;-86
2023/12/25 07:45:44;;;;;;;0.10;0.10;;;;;;;15.69;40.34;100885.41;4974307;28;20033;-88
2023/12/25 07:48:10;;;;;;;0.20;0.20;;;;;;;15.64;40.08;100871.03;4957125;28;20468;-89
2023/12/25 07:50:35;;;;;;;0.20;0.20;;;;;;;15.78;39.90;100895.25;4974694;28;20035;-87
2023/12/25 07:53:01;;;;;;;0.20;0.20;;;;;;;15.89;39.65;100902.34;4974263;28;20034;-89
2023/12/25 07:55:27;;;;;;;0.10;0.10;;;;;;;15.98;39.27;100911.34;4957177;28;20034;-87
2023/12/25 07:57:53;;;;;;;0.20;0.20;;;;;;;16.14;39.14;100919.81;4957235;28;20037;-90
2023/12/25 08:00:18;;;;;;;0.10;0.10;;;;;;;16.15;39.00;100907.63;4956898;28;20035;-88
2023/12/25 08:02:44;;;;;;;0.20;0.20;;;;;;;16.27;38.91;100914.59;4974148;28;20032;-88
2023/12/25 08:05:09;;;;;;;0.20;0.20;;;;;;;16.46;38.41;100908.97;4941138;28;20114;-88
2023/12/25 08:07:35;;;;;;;0.20;0.20;;;;;;;16.40;38.11;100897.16;4974444;28;20477;-88
2023/12/25 08:10:01;;;;;;;0.20;0.20;;;;;;;16.60;37.44;100914.06;4974505;28;20026;-88
2023/12/25 08:12:26;;;;;;;0.20;0.20;;;;;;;16.53;37.72;100891.94;4972617;28;20037;-89
2023/12/25 08:14:52;;;;;;;0.17;0.17;;;;;;;16.66;37.16;100913.63;4956573;28;20031;-87
2023/12/25 08:17:17;;;;;;;0.20;0.20;;;;;;;16.81;37.17;100916.97;4956845;28;20114;-88
2023/12/25 08:19:43;;;;;;;0.20;0.20;;;;;;;16.86;36.86;100901.81;4974035;28;20062;-89
2023/12/25 08:22:08;;;;;;;0.20;0.20;;;;;;;16.83;36.25;100895.03;4956805;28;20026;-87
2023/12/25 08:24:36;;;;;;;0.20;0.20;;;;;;;17.00;36.27;100929.56;4956319;28;20075;-87
2023/12/25 08:27:03;;;;;;;0.20;0.20;;;;;;;16.91;36.16;100907.53;4956955;28;20069;-85
2023/12/25 08:29:28;;;;;;;0.20;0.20;;;;;;;17.26;35.71;100920.72;4973563;28;20023;-88
2023/12/25 08:31:55;;;;;;;0.20;0.20;;;;;;;17.43;35.12;100930.78;4973693;28;20039;-87
2023/12/25 08:34:23;;;;;;;0.20;0.20;;;;;;;17.46;35.26;100922.72;4956902;28;20027;-89
2023/12/25 08:36:49;;;;;;;0.20;0.20;;;;;;;17.71;34.74;100939.28;4940543;28;20038;-88
2023/12/25 08:39:15;;;;;;;0.20;0.20;;;;;;;17.82;34.56;100941.09;4956415;28;20027;-89
2023/12/25 08:41:40;;;;;;;0.20;0.20;;;;;;;18.00;34.17;100937.94;4940138;28;20097;-88
2023/12/25 08:44:06;;;;;;;0.20;0.20;;;;;;;17.96;33.85;100948.75;4955687;28;20026;-88
2023/12/25 08:46:32;;;;;;;0.20;0.20;;;;;;;18.20;34.25;100956.56;4939975;28;20117;-88
2023/12/25 08:48:57;;;;;;;0.20;0.20;;;;;;;18.05;33.05;100934.97;4956257;28;20023;-89
2023/12/25 08:51:23;;;;;;;0.10;0.10;;;;;;;18.14;32.74;100947.38;4973434;28;20033;-87
2023/12/25 08:53:48;;;;;;;0.20;0.20;;;;;;;18.01;33.04;100931.75;4956039;28;20517;-88
2023/12/25 08:56:25;;;;;;;0.20;0.20;;;;;;;18.08;32.96;100947.81;4956184;28;20027;-86
2023/12/25 08:58:50;;;;;;;0.20;0.20;;;;;;;18.09;32.97;100932.94;4939809;28;20752;-89
2023/12/25 09:01:16;;;;;;;0.20;0.20;;;;;;;18.17;32.07;100941.06;4956020;28;20055;-87
2023/12/25 09:03:41;;;;;;;0.20;0.20;;;;;;;18.12;32.03;100945.81;4955698;28;20034;-85
2023/12/25 09:06:07;;;;;;;0.20;0.20;;;;;;;18.16;31.88;100952.47;4971621;28;20082;-88
2023/12/25 09:08:32;;;;;;;0.20;0.20;;;;;;;18.24;31.76;100939.66;4955724;28;20035;-87
2023/12/25 09:10:58;;;;;;;0.10;0.10;;;;;;;18.23;32.39;100940.59;4955439;28;20427;-88
2023/12/25 09:13:23;;;;;;;0.20;0.20;;;;;;;18.15;32.08;100925.47;4972575;28;20498;-87
2023/12/25 09:15:49;;;;;;;0.20;0.20;;;;;;;18.20;31.84;100940.84;4939557;28;20065;-89
2023/12/25 09:18:14;;;;;;;0.20;0.20;;;;;;;18.34;31.28;100932.75;4955367;28;20625;-88
2023/12/25 09:20:40;;;;;;;0.20;0.20;;;;;;;18.25;31.11;100950.00;4939519;28;20485;-88
2023/12/25 09:23:06;;;;;;;0.10;0.10;;;;;;;18.42;30.90;100951.34;4955565;28;20089;-88
2023/12/25 09:25:31;;;;;;;0.20;0.20;;;;;;;18.45;30.85;100951.09;4955378;28;20406;-88
2023/12/25 09:27:57;;;;;;;0.20;0.20;;;;;;;18.55;30.50;100944.19;4972702;28;20034;-87
2023/12/25 09:30:22;;;;;;;0.10;0.10;;;;;;;18.61;30.58;100938.50;4972653;28;20035;-86
2023/12/25 09:32:48;;;;;;;0.10;0.10;;;;;;;18.61;30.46;100945.53;4955019;28;20023;-89
2023/12/25 09:35:15;;;;;;;0.20;0.20;;;;;;;18.58;31.21;100923.03;4955647;28;20030;-88
2023/12/25 09:37:41;;;;;;;0.10;0.10;;;;;;;18.73;30.63;100944.59;4955117;28;20393;-88
2023/12/25 09:40:07;;;;;;;0.17;0.17;;;;;;;18.84;30.07;100941.97;4955289;28;20035;-88
2023/12/25 09:42:33;;;;;;;0.20;0.20;;;;;;;18.82;30.32;100916.84;4954728;28;20082;-88
2023/12/25 09:44:58;;;;;;;0.10;0.10;;;;;;;19.01;29.92;100937.19;4955107;28;20023;-88
2023/12/25 09:47:24;;;;;;;0.20;0.20;;;;;;;18.96;30.03;100926.22;4955183;28;20026;-88
2023/12/25 09:49:50;;;;;;;0.20;0.20;;;;;;;19.13;29.77;100937.03;4955158;28;20038;-89
2023/12/25 09:52:16;;;;;;;0.20;0.20;;;;;;;19.20;30.04;100934.78;4954780;28;20026;-88
2023/12/25 09:54:42;;;;;;;0.15;0.15;;;;;;;19.10;30.50;100905.81;4954982;28;20037;-88
2023/12/25 09:57:08;;;;;;;0.10;0.10;;;;;;;19.27;29.72;100917.59;4971314;28;20479;-90
2023/12/25 09:59:33;;;;;;;0.20;0.20;;;;;;;19.38;29.31;100930.66;4955114;28;20531;-89
2023/12/25 10:01:59;;;;;;;0.15;0.15;;;;;;;19.52;28.85;100921.66;4972368;28;20117;-88
2023/12/25 10:04:25;;;;;;;0.17;0.17;;;;;;;19.37;28.97;100912.41;4938915;28;20029;-89
2023/12/25 10:06:51;;;;;;;0.20;0.20;;;;;;;19.55;29.25;100916.16;4939370;28;20034;-88
2023/12/25 10:09:16;;;;;;;0.10;0.10;;;;;;;19.52;29.10;100918.22;4972041;28;20045;-88
2023/12/25 10:11:42;;;;;;;0.20;0.20;;;;;;;19.64;28.80;100920.69;4954349;28;20023;-89
2023/12/25 10:14:07;;;;;;;0.20;0.20;;;;;;;19.77;28.82;100918.72;4971497;28;20134;-88
2023/12/25 10:16:34;;;;;;;0.20;0.20;;;;;;;19.75;29.18;100923.25;4971855;28;20118;-87
2023/12/25 10:18:59;;;;;;;0.20;0.20;;;;;;;19.76;29.20;100926.69;4954689;28;20511;-88
2023/12/25 10:21:25;;;;;;;0.10;0.10;;;;;;;19.78;28.77;100924.81;4971666;28;20043;-88
2023/12/25 10:23:50;;;;;;;0.20;0.20;;;;;;;19.89;28.69;100927.38;4954546;28;20034;-89
2023/12/25 10:26:26;;;;;;;0.20;0.20;;;;;;;19.86;29.13;100930.25;4971567;28;20081;-88
2023/12/25 10:28:52;;;;;;;0.10;0.10;;;;;;;19.96;29.16;100931.16;4971839;28;20062;-89
2023/12/25 10:31:25;;;;;;;0.10;0.10;;;;;;;20.13;28.81;100942.03;4954621;28;20547;-88
2023/12/25 10:33:57;;;;;;;0.20;0.20;;;;;;;20.22;28.23;100926.31;4939405;28;20485;-88
2023/12/25 10:36:24;;;;;;;0.20;0.20;;;;;;;20.38;27.61;100938.19;4938630;28;20030;-85
2023/12/25 10:38:49;;;;;;;0.20;0.20;;;;;;;20.28;26.75;100931.06;4954290;28;20031;-88
2023/12/25 10:41:18;;;;;;;0.13;0.13;;;;;;;20.50;26.98;100931.91;4954267;28;20035;-88
2023/12/25 10:43:52;;;;;;;0.10;0.10;;;;;;;20.39;27.29;100924.91;4954320;28;20041;-89
2023/12/25 10:46:25;;;;;;;0.20;0.20;;;;;;;20.39;27.77;100911.75;4938975;28;20485;-89
2023/12/25 10:48:52;;;;;;;0.10;0.10;;;;;;;20.73;26.74;100929.91;4954416;28;20128;-89
2023/12/25 10:51:34;;;;;;;0.20;0.20;;;;;;;20.66;26.85;100919.09;4938347;28;20413;-89
2023/12/25 10:54:03;;;;;;;0.20;0.20;;;;;;;20.83;26.38;100925.50;4971053;28;20031;-88
2023/12/25 10:56:33;;;;;;;0.20;0.20;;;;;;;20.81;26.33;100911.66;4938151;28;20039;-90
2023/12/25 10:59:16;;;;;;;0.20;0.20;;;;;;;20.88;25.56;100939.94;4938676;28;20507;-88
2023/12/25 11:01:46;;;;;;;0.20;0.20;;;;;;;20.90;26.22;100914.31;4954898;28;20034;-88
2023/12/25 11:04:15;;;;;;;0.10;0.10;;;;;;;20.94;25.40;100921.94;4954204;28;20445;-89
2023/12/25 11:06:41;;;;;;;0.20;0.20;;;;;;;21.15;25.04;100935.84;4938499;28;20460;-88
2023/12/25 11:09:07;;;;;;;0.10;0.10;;;;;;;21.11;25.50;100918.66;4956065;28;20110;-88
2023/12/25 11:11:32;;;;;;;0.20;0.20;;;;;;;21.07;25.26;100912.84;4958011;28;20105;-88
2023/12/25 11:13:58;;;;;;;0.20;0.20;;;;;;;21.11;25.42;100898.44;4941609;28;20082;-90
2023/12/25 11:16:23;;;;;;;0.20;0.20;;;;;;;21.34;25.55;100922.75;4941744;28;20031;-89
2023/12/25 11:18:50;;;;;;;0.10;0.10;;;;;;;21.34;25.51;100928.03;4957625;28;20031;-88
2023/12/25 11:21:19;;;;;;;0.10;0.10;;;;;;;21.40;25.00;100914.28;4942215;28;20035;-89